Terminal Aerodrome Forecast
Issued by NWS

Home | Current Version | Previous Version | Text Only | Print | Product List | Glossary Off
Versions: 1 2 3 4 5 6 7 8 9 10 11 12 13 14 15 16

000
FTUS43 KTOP 281400 AAA
TAFMHK
TAF AMD
KMHK 281405Z 2814/0112 13009KT 1 1/2SM -SN BR OVC015
      TEMPO 2814/2818 1/2SM SN BKN005
     FM010000 16004KT 6SM BR OVC025=

USA.gov is the U.S. government's official web portal to all federal, state and local government web resources and services.